sensor_id;sensor_type;location;lat;lon;timestamp;P1;durP1;ratioP1;P2;durP2;ratioP2
10450;SDS011;5273;51.290;6.918;2022-08-19T00:02:00;7.45;;;6.65;;
10450;SDS011;5273;51.290;6.918;2022-08-19T00:04:28;8.68;;;7.90;;
10450;SDS011;5273;51.290;6.918;2022-08-19T00:06:59;7.30;;;6.47;;
10450;SDS011;5273;51.290;6.918;2022-08-19T00:09:27;8.00;;;7.20;;
10450;SDS011;5273;51.290;6.918;2022-08-19T00:11:54;9.02;;;7.32;;
10450;SDS011;5273;51.290;6.918;2022-08-19T00:14:23;10.15;;;7.45;;
10450;SDS011;5273;51.290;6.918;2022-08-19T00:16:53;10.65;;;7.57;;
10450;SDS011;5273;51.290;6.918;2022-08-19T00:19:20;8.48;;;7.57;;
10450;SDS011;5273;51.290;6.918;2022-08-19T00:21:48;8.18;;;7.38;;
10450;SDS011;5273;51.290;6.918;2022-08-19T00:24:15;8.05;;;7.18;;
10450;SDS011;5273;51.290;6.918;2022-08-19T00:26:42;8.55;;;7.22;;
10450;SDS011;5273;51.290;6.918;2022-08-19T00:29:11;10.93;;;7.53;;
10450;SDS011;5273;51.290;6.918;2022-08-19T00:31:41;9.63;;;6.95;;
10450;SDS011;5273;51.290;6.918;2022-08-19T00:34:10;9.13;;;7.07;;
10450;SDS011;5273;51.290;6.918;2022-08-19T00:36:38;8.07;;;7.32;;
10450;SDS011;5273;51.290;6.918;2022-08-19T00:39:05;8.30;;;7.10;;
10450;SDS011;5273;51.290;6.918;2022-08-19T00:41:32;11.27;;;8.52;;
10450;SDS011;5273;51.290;6.918;2022-08-19T00:44:00;12.48;;;7.50;;
10450;SDS011;5273;51.290;6.918;2022-08-19T00:46:29;9.30;;;7.75;;
10450;SDS011;5273;51.290;6.918;2022-08-19T00:48:57;9.85;;;7.60;;
10450;SDS011;5273;51.290;6.918;2022-08-19T00:51:27;8.75;;;7.93;;
10450;SDS011;5273;51.290;6.918;2022-08-19T00:53:57;9.15;;;7.82;;
10450;SDS011;5273;51.290;6.918;2022-08-19T00:56:25;9.27;;;7.75;;
10450;SDS011;5273;51.290;6.918;2022-08-19T00:58:53;10.02;;;8.10;;
10450;SDS011;5273;51.290;6.918;2022-08-19T01:01:22;9.57;;;8.07;;
10450;SDS011;5273;51.290;6.918;2022-08-19T01:03:49;9.60;;;8.07;;
10450;SDS011;5273;51.290;6.918;2022-08-19T01:06:16;9.52;;;8.10;;
10450;SDS011;5273;51.290;6.918;2022-08-19T01:08:45;9.10;;;8.23;;
10450;SDS011;5273;51.290;6.918;2022-08-19T01:11:12;10.60;;;7.70;;
10450;SDS011;5273;51.290;6.918;2022-08-19T01:13:39;10.05;;;8.60;;
10450;SDS011;5273;51.290;6.918;2022-08-19T01:16:07;11.88;;;8.23;;
10450;SDS011;5273;51.290;6.918;2022-08-19T01:18:36;10.13;;;9.10;;
10450;SDS011;5273;51.290;6.918;2022-08-19T01:21:08;9.82;;;8.93;;
10450;SDS011;5273;51.290;6.918;2022-08-19T01:23:42;10.05;;;8.70;;
10450;SDS011;5273;51.290;6.918;2022-08-19T01:26:10;10.32;;;8.45;;
10450;SDS011;5273;51.290;6.918;2022-08-19T01:28:38;10.05;;;9.05;;
10450;SDS011;5273;51.290;6.918;2022-08-19T01:31:09;11.25;;;9.30;;
10450;SDS011;5273;51.290;6.918;2022-08-19T01:33:40;9.65;;;8.73;;
10450;SDS011;5273;51.290;6.918;2022-08-19T01:36:12;10.45;;;9.30;;
10450;SDS011;5273;51.290;6.918;2022-08-19T01:38:43;10.45;;;8.73;;
10450;SDS011;5273;51.290;6.918;2022-08-19T01:41:11;11.32;;;9.20;;
10450;SDS011;5273;51.290;6.918;2022-08-19T01:43:38;9.35;;;8.40;;
10450;SDS011;5273;51.290;6.918;2022-08-19T01:46:05;11.05;;;9.50;;
10450;SDS011;5273;51.290;6.918;2022-08-19T01:48:33;10.70;;;9.65;;
10450;SDS011;5273;51.290;6.918;2022-08-19T01:51:01;10.95;;;9.75;;
10450;SDS011;5273;51.290;6.918;2022-08-19T01:53:28;10.55;;;9.13;;
10450;SDS011;5273;51.290;6.918;2022-08-19T01:55:56;10.63;;;9.52;;
10450;SDS011;5273;51.290;6.918;2022-08-19T01:58:24;10.75;;;8.93;;
10450;SDS011;5273;51.290;6.918;2022-08-19T02:00:55;10.88;;;9.45;;
10450;SDS011;5273;51.290;6.918;2022-08-19T02:03:23;11.02;;;9.90;;
10450;SDS011;5273;51.290;6.918;2022-08-19T02:05:53;10.80;;;9.70;;
10450;SDS011;5273;51.290;6.918;2022-08-19T02:08:21;10.18;;;9.23;;
10450;SDS011;5273;51.290;6.918;2022-08-19T02:10:48;12.38;;;9.88;;
10450;SDS011;5273;51.290;6.918;2022-08-19T02:13:16;14.45;;;9.70;;
10450;SDS011;5273;51.290;6.918;2022-08-19T02:15:44;12.75;;;8.90;;
10450;SDS011;5273;51.290;6.918;2022-08-19T02:18:10;10.43;;;7.93;;
10450;SDS011;5273;51.290;6.918;2022-08-19T02:20:38;6.82;;;6.10;;
10450;SDS011;5273;51.290;6.918;2022-08-19T02:23:08;8.18;;;6.88;;
10450;SDS011;5273;51.290;6.918;2022-08-19T02:25:36;9.00;;;7.18;;
10450;SDS011;5273;51.290;6.918;2022-08-19T02:28:03;8.48;;;7.68;;
10450;SDS011;5273;51.290;6.918;2022-08-19T02:30:32;8.45;;;7.43;;
10450;SDS011;5273;51.290;6.918;2022-08-19T02:32:59;8.00;;;7.22;;
10450;SDS011;5273;51.290;6.918;2022-08-19T02:35:25;9.55;;;8.65;;
10450;SDS011;5273;51.290;6.918;2022-08-19T02:37:52;11.80;;;10.32;;
10450;SDS011;5273;51.290;6.918;2022-08-19T02:40:36;12.70;;;9.38;;
10450;SDS011;5273;51.290;6.918;2022-08-19T02:43:04;9.90;;;8.90;;
10450;SDS011;5273;51.290;6.918;2022-08-19T02:45:34;10.70;;;9.02;;
10450;SDS011;5273;51.290;6.918;2022-08-19T02:48:02;9.63;;;8.63;;
10450;SDS011;5273;51.290;6.918;2022-08-19T02:50:29;10.32;;;9.30;;
10450;SDS011;5273;51.290;6.918;2022-08-19T02:52:56;9.27;;;8.30;;
10450;SDS011;5273;51.290;6.918;2022-08-19T02:55:23;8.85;;;8.05;;
10450;SDS011;5273;51.290;6.918;2022-08-19T02:57:50;11.43;;;10.23;;
10450;SDS011;5273;51.290;6.918;2022-08-19T03:00:17;9.05;;;8.20;;
10450;SDS011;5273;51.290;6.918;2022-08-19T03:02:45;9.40;;;8.10;;
10450;SDS011;5273;51.290;6.918;2022-08-19T03:05:13;13.48;;;10.05;;
10450;SDS011;5273;51.290;6.918;2022-08-19T03:07:40;10.00;;;9.05;;
10450;SDS011;5273;51.290;6.918;2022-08-19T03:10:07;9.77;;;8.77;;
10450;SDS011;5273;51.290;6.918;2022-08-19T03:12:35;11.50;;;9.98;;
10450;SDS011;5273;51.290;6.918;2022-08-19T03:15:03;17.30;;;11.60;;
10450;SDS011;5273;51.290;6.918;2022-08-19T03:17:31;15.90;;;14.02;;
10450;SDS011;5273;51.290;6.918;2022-08-19T03:19:59;14.10;;;11.93;;
10450;SDS011;5273;51.290;6.918;2022-08-19T03:22:26;13.90;;;11.05;;
10450;SDS011;5273;51.290;6.918;2022-08-19T03:24:55;10.23;;;8.55;;
10450;SDS011;5273;51.290;6.918;2022-08-19T03:27:21;10.00;;;7.85;;
10450;SDS011;5273;51.290;6.918;2022-08-19T03:29:48;9.02;;;8.13;;
10450;SDS011;5273;51.290;6.918;2022-08-19T03:32:16;11.48;;;10.27;;
10450;SDS011;5273;51.290;6.918;2022-08-19T03:34:42;15.18;;;13.40;;
10450;SDS011;5273;51.290;6.918;2022-08-19T03:37:11;15.10;;;12.82;;
10450;SDS011;5273;51.290;6.918;2022-08-19T03:39:38;12.93;;;11.40;;
10450;SDS011;5273;51.290;6.918;2022-08-19T03:42:07;11.82;;;10.45;;
10450;SDS011;5273;51.290;6.918;2022-08-19T03:44:35;11.75;;;10.55;;
10450;SDS011;5273;51.290;6.918;2022-08-19T03:47:02;10.63;;;9.45;;
10450;SDS011;5273;51.290;6.918;2022-08-19T03:49:30;11.60;;;10.38;;
10450;SDS011;5273;51.290;6.918;2022-08-19T03:52:00;12.10;;;9.65;;
10450;SDS011;5273;51.290;6.918;2022-08-19T03:54:28;13.45;;;10.60;;
10450;SDS011;5273;51.290;6.918;2022-08-19T03:56:55;10.55;;;8.73;;
10450;SDS011;5273;51.290;6.918;2022-08-19T03:59:23;9.40;;;8.02;;
10450;SDS011;5273;51.290;6.918;2022-08-19T04:01:52;8.10;;;7.40;;
10450;SDS011;5273;51.290;6.918;2022-08-19T04:04:20;12.18;;;9.95;;
10450;SDS011;5273;51.290;6.918;2022-08-19T04:06:47;7.70;;;6.68;;
10450;SDS011;5273;51.290;6.918;2022-08-19T04:09:14;9.00;;;8.20;;
10450;SDS011;5273;51.290;6.918;2022-08-19T04:11:45;11.20;;;10.00;;
10450;SDS011;5273;51.290;6.918;2022-08-19T04:14:14;11.35;;;9.98;;
10450;SDS011;5273;51.290;6.918;2022-08-19T04:16:42;10.90;;;9.80;;
10450;SDS011;5273;51.290;6.918;2022-08-19T04:19:10;10.45;;;9.35;;
10450;SDS011;5273;51.290;6.918;2022-08-19T04:21:37;14.27;;;12.27;;
10450;SDS011;5273;51.290;6.918;2022-08-19T04:24:04;17.90;;;13.85;;
10450;SDS011;5273;51.290;6.918;2022-08-19T04:26:32;18.42;;;13.57;;
10450;SDS011;5273;51.290;6.918;2022-08-19T04:29:05;11.80;;;10.57;;
10450;SDS011;5273;51.290;6.918;2022-08-19T04:31:34;11.82;;;10.60;;
10450;SDS011;5273;51.290;6.918;2022-08-19T04:34:02;13.80;;;12.27;;
10450;SDS011;5273;51.290;6.918;2022-08-19T04:36:31;19.42;;;15.43;;
10450;SDS011;5273;51.290;6.918;2022-08-19T04:39:03;18.00;;;15.70;;
10450;SDS011;5273;51.290;6.918;2022-08-19T04:41:32;22.20;;;17.23;;
10450;SDS011;5273;51.290;6.918;2022-08-19T04:44:17;20.30;;;17.80;;
10450;SDS011;5273;51.290;6.918;2022-08-19T04:46:45;25.45;;;18.63;;
10450;SDS011;5273;51.290;6.918;2022-08-19T04:49:13;15.15;;;12.00;;
10450;SDS011;5273;51.290;6.918;2022-08-19T04:51:41;13.40;;;12.00;;
10450;SDS011;5273;51.290;6.918;2022-08-19T04:54:10;19.17;;;16.05;;
10450;SDS011;5273;51.290;6.918;2022-08-19T04:56:38;20.08;;;17.13;;
10450;SDS011;5273;51.290;6.918;2022-08-19T04:59:05;22.48;;;19.10;;
10450;SDS011;5273;51.290;6.918;2022-08-19T05:01:34;22.05;;;18.73;;
10450;SDS011;5273;51.290;6.918;2022-08-19T05:04:03;22.58;;;19.25;;
10450;SDS011;5273;51.290;6.918;2022-08-19T05:06:31;19.20;;;17.05;;
10450;SDS011;5273;51.290;6.918;2022-08-19T05:08:59;22.63;;;18.60;;
10450;SDS011;5273;51.290;6.918;2022-08-19T05:11:28;20.95;;;18.13;;
10450;SDS011;5273;51.290;6.918;2022-08-19T05:13:56;23.42;;;19.17;;
10450;SDS011;5273;51.290;6.918;2022-08-19T05:16:23;17.73;;;14.65;;
10450;SDS011;5273;51.290;6.918;2022-08-19T05:18:53;18.35;;;14.95;;
10450;SDS011;5273;51.290;6.918;2022-08-19T05:21:39;19.02;;;16.52;;
10450;SDS011;5273;51.290;6.918;2022-08-19T05:24:24;19.50;;;15.75;;
10450;SDS011;5273;51.290;6.918;2022-08-19T05:26:52;19.25;;;16.92;;
10450;SDS011;5273;51.290;6.918;2022-08-19T05:29:22;17.88;;;16.05;;
10450;SDS011;5273;51.290;6.918;2022-08-19T05:31:50;15.90;;;14.13;;
10450;SDS011;5273;51.290;6.918;2022-08-19T05:34:20;18.92;;;16.90;;
10450;SDS011;5273;51.290;6.918;2022-08-19T05:36:49;18.42;;;14.63;;
10450;SDS011;5273;51.290;6.918;2022-08-19T05:39:22;21.52;;;15.77;;
10450;SDS011;5273;51.290;6.918;2022-08-19T05:41:52;20.27;;;16.52;;
10450;SDS011;5273;51.290;6.918;2022-08-19T05:44:22;18.90;;;16.55;;
10450;SDS011;5273;51.290;6.918;2022-08-19T05:46:50;19.52;;;16.42;;
10450;SDS011;5273;51.290;6.918;2022-08-19T05:49:20;20.40;;;17.23;;
10450;SDS011;5273;51.290;6.918;2022-08-19T05:51:49;18.50;;;16.05;;
10450;SDS011;5273;51.290;6.918;2022-08-19T05:54:17;21.90;;;15.60;;
10450;SDS011;5273;51.290;6.918;2022-08-19T05:56:44;21.48;;;15.95;;
10450;SDS011;5273;51.290;6.918;2022-08-19T05:59:13;21.75;;;14.52;;
10450;SDS011;5273;51.290;6.918;2022-08-19T06:01:42;16.65;;;14.55;;
10450;SDS011;5273;51.290;6.918;2022-08-19T06:04:11;20.63;;;14.55;;
10450;SDS011;5273;51.290;6.918;2022-08-19T06:06:40;19.50;;;14.85;;
10450;SDS011;5273;51.290;6.918;2022-08-19T06:09:07;20.65;;;15.93;;
10450;SDS011;5273;51.290;6.918;2022-08-19T06:11:36;21.08;;;16.08;;
10450;SDS011;5273;51.290;6.918;2022-08-19T06:14:06;24.00;;;16.80;;
10450;SDS011;5273;51.290;6.918;2022-08-19T06:16:34;19.42;;;17.05;;
10450;SDS011;5273;51.290;6.918;2022-08-19T06:19:03;19.80;;;17.63;;
10450;SDS011;5273;51.290;6.918;2022-08-19T06:21:32;24.67;;;18.63;;
10450;SDS011;5273;51.290;6.918;2022-08-19T06:24:04;25.23;;;18.88;;
10450;SDS011;5273;51.290;6.918;2022-08-19T06:26:31;25.63;;;22.15;;
10450;SDS011;5273;51.290;6.918;2022-08-19T06:29:00;25.08;;;20.77;;
10450;SDS011;5273;51.290;6.918;2022-08-19T06:31:28;22.48;;;20.15;;
10450;SDS011;5273;51.290;6.918;2022-08-19T06:33:58;21.90;;;18.80;;
10450;SDS011;5273;51.290;6.918;2022-08-19T06:36:27;33.83;;;24.60;;
10450;SDS011;5273;51.290;6.918;2022-08-19T06:38:58;26.30;;;23.48;;
10450;SDS011;5273;51.290;6.918;2022-08-19T06:41:27;26.08;;;23.33;;
10450;SDS011;5273;51.290;6.918;2022-08-19T06:43:55;27.23;;;24.20;;
10450;SDS011;5273;51.290;6.918;2022-08-19T06:46:22;27.70;;;24.83;;
10450;SDS011;5273;51.290;6.918;2022-08-19T06:48:50;27.35;;;24.52;;
10450;SDS011;5273;51.290;6.918;2022-08-19T06:51:18;27.42;;;24.52;;
10450;SDS011;5273;51.290;6.918;2022-08-19T06:53:46;31.67;;;24.75;;
10450;SDS011;5273;51.290;6.918;2022-08-19T06:56:13;30.90;;;24.80;;
10450;SDS011;5273;51.290;6.918;2022-08-19T06:58:42;26.65;;;23.80;;
10450;SDS011;5273;51.290;6.918;2022-08-19T07:01:09;28.02;;;24.67;;
10450;SDS011;5273;51.290;6.918;2022-08-19T07:03:36;29.70;;;26.55;;
10450;SDS011;5273;51.290;6.918;2022-08-19T07:06:05;29.83;;;26.70;;
10450;SDS011;5273;51.290;6.918;2022-08-19T07:08:33;31.98;;;26.05;;
10450;SDS011;5273;51.290;6.918;2022-08-19T07:11:01;30.27;;;27.17;;
10450;SDS011;5273;51.290;6.918;2022-08-19T07:13:31;31.90;;;26.67;;
10450;SDS011;5273;51.290;6.918;2022-08-19T07:16:00;31.50;;;27.58;;
10450;SDS011;5273;51.290;6.918;2022-08-19T07:18:29;31.95;;;28.50;;
10450;SDS011;5273;51.290;6.918;2022-08-19T07:21:01;32.85;;;29.30;;
10450;SDS011;5273;51.290;6.918;2022-08-19T07:23:29;34.28;;;30.77;;
10450;SDS011;5273;51.290;6.918;2022-08-19T07:25:56;34.58;;;30.95;;
10450;SDS011;5273;51.290;6.918;2022-08-19T07:28:23;35.58;;;31.92;;
10450;SDS011;5273;51.290;6.918;2022-08-19T07:30:50;35.10;;;31.45;;
10450;SDS011;5273;51.290;6.918;2022-08-19T07:33:18;34.40;;;29.27;;
10450;SDS011;5273;51.290;6.918;2022-08-19T07:35:46;31.15;;;28.02;;
10450;SDS011;5273;51.290;6.918;2022-08-19T07:38:12;27.70;;;24.88;;
10450;SDS011;5273;51.290;6.918;2022-08-19T07:40:40;29.13;;;26.13;;
10450;SDS011;5273;51.290;6.918;2022-08-19T07:43:08;31.08;;;26.67;;
10450;SDS011;5273;51.290;6.918;2022-08-19T07:45:35;27.58;;;24.73;;
10450;SDS011;5273;51.290;6.918;2022-08-19T07:48:02;28.80;;;25.80;;
10450;SDS011;5273;51.290;6.918;2022-08-19T07:50:31;28.40;;;25.40;;
10450;SDS011;5273;51.290;6.918;2022-08-19T07:52:58;27.25;;;24.45;;
10450;SDS011;5273;51.290;6.918;2022-08-19T07:55:25;28.42;;;25.63;;
10450;SDS011;5273;51.290;6.918;2022-08-19T07:57:52;28.58;;;25.60;;
10450;SDS011;5273;51.290;6.918;2022-08-19T08:00:19;26.55;;;23.80;;
10450;SDS011;5273;51.290;6.918;2022-08-19T08:02:46;27.63;;;24.83;;
10450;SDS011;5273;51.290;6.918;2022-08-19T08:05:13;26.10;;;23.42;;
10450;SDS011;5273;51.290;6.918;2022-08-19T08:07:58;27.00;;;24.17;;
10450;SDS011;5273;51.290;6.918;2022-08-19T08:10:43;27.42;;;24.58;;
10450;SDS011;5273;51.290;6.918;2022-08-19T08:13:10;26.77;;;23.95;;
10450;SDS011;5273;51.290;6.918;2022-08-19T08:15:37;26.58;;;23.70;;
10450;SDS011;5273;51.290;6.918;2022-08-19T08:18:05;27.30;;;24.35;;
10450;SDS011;5273;51.290;6.918;2022-08-19T08:20:32;22.45;;;20.10;;
10450;SDS011;5273;51.290;6.918;2022-08-19T08:23:00;23.85;;;21.38;;
10450;SDS011;5273;51.290;6.918;2022-08-19T08:25:45;22.48;;;20.27;;
10450;SDS011;5273;51.290;6.918;2022-08-19T08:28:13;20.85;;;18.77;;
10450;SDS011;5273;51.290;6.918;2022-08-19T08:30:40;19.60;;;17.73;;
10450;SDS011;5273;51.290;6.918;2022-08-19T08:33:08;19.23;;;17.33;;
10450;SDS011;5273;51.290;6.918;2022-08-19T08:35:36;19.67;;;17.63;;
10450;SDS011;5273;51.290;6.918;2022-08-19T08:38:05;17.38;;;15.75;;
10450;SDS011;5273;51.290;6.918;2022-08-19T08:40:33;17.98;;;16.23;;
10450;SDS011;5273;51.290;6.918;2022-08-19T08:43:06;18.58;;;15.88;;
10450;SDS011;5273;51.290;6.918;2022-08-19T08:45:49;18.92;;;16.98;;
10450;SDS011;5273;51.290;6.918;2022-08-19T08:48:22;17.20;;;15.40;;
10450;SDS011;5273;51.290;6.918;2022-08-19T08:50:57;17.98;;;16.13;;
10450;SDS011;5273;51.290;6.918;2022-08-19T08:53:28;22.77;;;19.52;;
10450;SDS011;5273;51.290;6.918;2022-08-19T08:55:58;21.65;;;19.42;;
10450;SDS011;5273;51.290;6.918;2022-08-19T08:58:31;25.73;;;22.67;;
10450;SDS011;5273;51.290;6.918;2022-08-19T09:01:08;24.38;;;21.98;;
10450;SDS011;5273;51.290;6.918;2022-08-19T09:03:37;25.45;;;21.58;;
10450;SDS011;5273;51.290;6.918;2022-08-19T09:06:07;26.67;;;23.88;;
10450;SDS011;5273;51.290;6.918;2022-08-19T09:08:42;26.00;;;23.30;;
10450;SDS011;5273;51.290;6.918;2022-08-19T09:11:15;24.48;;;21.55;;
10450;SDS011;5273;51.290;6.918;2022-08-19T09:13:51;23.60;;;21.30;;
10450;SDS011;5273;51.290;6.918;2022-08-19T09:16:28;25.88;;;23.38;;
10450;SDS011;5273;51.290;6.918;2022-08-19T09:18:56;26.60;;;23.90;;
10450;SDS011;5273;51.290;6.918;2022-08-19T09:21:26;26.55;;;23.98;;
10450;SDS011;5273;51.290;6.918;2022-08-19T09:23:55;25.33;;;22.85;;
10450;SDS011;5273;51.290;6.918;2022-08-19T09:26:22;23.08;;;20.77;;
10450;SDS011;5273;51.290;6.918;2022-08-19T09:28:50;19.17;;;17.25;;
10450;SDS011;5273;51.290;6.918;2022-08-19T09:31:21;17.48;;;15.55;;
10450;SDS011;5273;51.290;6.918;2022-08-19T09:33:48;18.00;;;16.30;;
10450;SDS011;5273;51.290;6.918;2022-08-19T09:36:17;18.08;;;16.38;;
10450;SDS011;5273;51.290;6.918;2022-08-19T09:38:45;19.15;;;15.13;;
10450;SDS011;5273;51.290;6.918;2022-08-19T09:41:14;16.02;;;14.43;;
10450;SDS011;5273;51.290;6.918;2022-08-19T09:43:44;15.45;;;13.85;;
10450;SDS011;5273;51.290;6.918;2022-08-19T09:46:12;16.77;;;14.98;;
10450;SDS011;5273;51.290;6.918;2022-08-19T09:48:41;17.92;;;16.13;;
10450;SDS011;5273;51.290;6.918;2022-08-19T09:51:10;16.15;;;14.52;;
10450;SDS011;5273;51.290;6.918;2022-08-19T09:53:40;14.48;;;12.98;;
10450;SDS011;5273;51.290;6.918;2022-08-19T09:56:08;17.02;;;15.32;;
10450;SDS011;5273;51.290;6.918;2022-08-19T09:58:37;15.63;;;14.23;;
10450;SDS011;5273;51.290;6.918;2022-08-19T10:01:05;17.25;;;15.43;;
10450;SDS011;5273;51.290;6.918;2022-08-19T10:03:33;16.75;;;15.18;;
10450;SDS011;5273;51.290;6.918;2022-08-19T10:06:02;18.52;;;16.10;;
10450;SDS011;5273;51.290;6.918;2022-08-19T10:08:32;15.73;;;13.82;;
10450;SDS011;5273;51.290;6.918;2022-08-19T10:11:01;15.07;;;13.68;;
10450;SDS011;5273;51.290;6.918;2022-08-19T10:13:29;16.60;;;14.57;;
10450;SDS011;5273;51.290;6.918;2022-08-19T10:16:02;17.08;;;15.38;;
10450;SDS011;5273;51.290;6.918;2022-08-19T10:18:31;18.92;;;17.02;;
10450;SDS011;5273;51.290;6.918;2022-08-19T10:21:02;21.63;;;18.63;;
10450;SDS011;5273;51.290;6.918;2022-08-19T10:23:33;19.30;;;17.30;;
10450;SDS011;5273;51.290;6.918;2022-08-19T10:26:01;18.90;;;17.08;;
10450;SDS011;5273;51.290;6.918;2022-08-19T10:28:31;19.42;;;17.58;;
10450;SDS011;5273;51.290;6.918;2022-08-19T10:31:04;19.95;;;18.13;;
10450;SDS011;5273;51.290;6.918;2022-08-19T10:33:32;21.10;;;19.10;;
10450;SDS011;5273;51.290;6.918;2022-08-19T10:36:00;18.33;;;16.50;;
10450;SDS011;5273;51.290;6.918;2022-08-19T10:38:27;18.15;;;16.35;;
10450;SDS011;5273;51.290;6.918;2022-08-19T10:40:55;18.08;;;16.17;;
10450;SDS011;5273;51.290;6.918;2022-08-19T10:43:21;15.43;;;13.90;;
10450;SDS011;5273;51.290;6.918;2022-08-19T10:45:51;14.40;;;13.02;;
10450;SDS011;5273;51.290;6.918;2022-08-19T10:48:22;16.25;;;14.75;;
10450;SDS011;5273;51.290;6.918;2022-08-19T10:50:49;16.05;;;14.13;;
10450;SDS011;5273;51.290;6.918;2022-08-19T10:53:33;18.15;;;16.35;;
10450;SDS011;5273;51.290;6.918;2022-08-19T10:56:00;17.92;;;15.05;;
10450;SDS011;5273;51.290;6.918;2022-08-19T10:58:43;17.35;;;14.30;;
10450;SDS011;5273;51.290;6.918;2022-08-19T11:01:10;17.00;;;15.10;;
10450;SDS011;5273;51.290;6.918;2022-08-19T11:03:39;15.27;;;13.68;;
10450;SDS011;5273;51.290;6.918;2022-08-19T11:06:06;18.10;;;14.73;;
10450;SDS011;5273;51.290;6.918;2022-08-19T11:08:34;15.95;;;14.35;;
10450;SDS011;5273;51.290;6.918;2022-08-19T11:11:02;15.30;;;13.57;;
10450;SDS011;5273;51.290;6.918;2022-08-19T11:13:31;17.80;;;14.48;;
10450;SDS011;5273;51.290;6.918;2022-08-19T11:16:00;13.48;;;12.07;;
10450;SDS011;5273;51.290;6.918;2022-08-19T11:18:29;10.98;;;9.82;;
10450;SDS011;5273;51.290;6.918;2022-08-19T11:21:05;10.82;;;9.70;;
10450;SDS011;5273;51.290;6.918;2022-08-19T11:23:33;12.50;;;11.20;;
10450;SDS011;5273;51.290;6.918;2022-08-19T11:26:00;12.20;;;10.95;;
10450;SDS011;5273;51.290;6.918;2022-08-19T11:28:27;10.32;;;9.18;;
10450;SDS011;5273;51.290;6.918;2022-08-19T11:30:54;12.32;;;9.88;;
10450;SDS011;5273;51.290;6.918;2022-08-19T11:33:22;10.35;;;9.32;;
10450;SDS011;5273;51.290;6.918;2022-08-19T11:35:51;10.65;;;8.88;;
10450;SDS011;5273;51.290;6.918;2022-08-19T11:38:19;9.07;;;8.18;;
10450;SDS011;5273;51.290;6.918;2022-08-19T11:40:53;7.45;;;6.78;;
10450;SDS011;5273;51.290;6.918;2022-08-19T11:43:23;7.95;;;7.20;;
10450;SDS011;5273;51.290;6.918;2022-08-19T11:45:51;8.38;;;7.57;;
10450;SDS011;5273;51.290;6.918;2022-08-19T11:48:18;7.75;;;7.05;;
10450;SDS011;5273;51.290;6.918;2022-08-19T11:50:47;10.68;;;6.35;;
10450;SDS011;5273;51.290;6.918;2022-08-19T11:53:14;7.32;;;6.63;;
10450;SDS011;5273;51.290;6.918;2022-08-19T11:55:42;6.63;;;6.03;;
10450;SDS011;5273;51.290;6.918;2022-08-19T11:58:10;6.57;;;5.60;;
10450;SDS011;5273;51.290;6.918;2022-08-19T12:00:37;7.47;;;6.78;;
10450;SDS011;5273;51.290;6.918;2022-08-19T12:03:05;6.47;;;5.88;;
10450;SDS011;5273;51.290;6.918;2022-08-19T12:05:32;6.53;;;5.95;;
10450;SDS011;5273;51.290;6.918;2022-08-19T12:07:59;8.18;;;7.38;;
10450;SDS011;5273;51.290;6.918;2022-08-19T12:10:26;10.60;;;6.78;;
10450;SDS011;5273;51.290;6.918;2022-08-19T12:12:54;14.48;;;7.00;;
10450;SDS011;5273;51.290;6.918;2022-08-19T12:15:21;8.80;;;5.68;;
10450;SDS011;5273;51.290;6.918;2022-08-19T12:17:48;6.45;;;5.85;;
10450;SDS011;5273;51.290;6.918;2022-08-19T12:20:15;6.65;;;5.97;;
10450;SDS011;5273;51.290;6.918;2022-08-19T12:22:42;9.98;;;6.90;;
10450;SDS011;5273;51.290;6.918;2022-08-19T12:25:10;7.80;;;6.95;;
10450;SDS011;5273;51.290;6.918;2022-08-19T12:27:38;8.10;;;6.88;;
10450;SDS011;5273;51.290;6.918;2022-08-19T12:30:08;7.25;;;6.50;;
10450;SDS011;5273;51.290;6.918;2022-08-19T12:32:36;8.48;;;7.75;;
10450;SDS011;5273;51.290;6.918;2022-08-19T12:35:03;8.43;;;6.47;;
10450;SDS011;5273;51.290;6.918;2022-08-19T12:37:31;8.95;;;6.97;;
10450;SDS011;5273;51.290;6.918;2022-08-19T12:39:58;7.65;;;6.95;;
10450;SDS011;5273;51.290;6.918;2022-08-19T12:42:25;10.82;;;7.90;;
10450;SDS011;5273;51.290;6.918;2022-08-19T12:44:52;9.15;;;6.65;;
10450;SDS011;5273;51.290;6.918;2022-08-19T12:47:21;7.85;;;6.53;;
10450;SDS011;5273;51.290;6.918;2022-08-19T12:49:48;7.28;;;6.55;;
10450;SDS011;5273;51.290;6.918;2022-08-19T12:52:16;9.40;;;5.90;;
10450;SDS011;5273;51.290;6.918;2022-08-19T12:54:46;6.32;;;5.68;;
10450;SDS011;5273;51.290;6.918;2022-08-19T12:57:13;6.00;;;5.40;;
10450;SDS011;5273;51.290;6.918;2022-08-19T12:59:40;5.47;;;4.70;;
10450;SDS011;5273;51.290;6.918;2022-08-19T13:02:07;5.97;;;4.22;;
10450;SDS011;5273;51.290;6.918;2022-08-19T13:04:36;5.13;;;4.43;;
10450;SDS011;5273;51.290;6.918;2022-08-19T13:07:06;6.38;;;5.40;;
10450;SDS011;5273;51.290;6.918;2022-08-19T13:09:33;7.22;;;6.50;;
10450;SDS011;5273;51.290;6.918;2022-08-19T13:12:01;7.85;;;5.28;;
10450;SDS011;5273;51.290;6.918;2022-08-19T13:14:32;6.75;;;6.10;;
10450;SDS011;5273;51.290;6.918;2022-08-19T13:16:59;6.95;;;5.38;;
10450;SDS011;5273;51.290;6.918;2022-08-19T13:19:26;5.45;;;4.75;;
10450;SDS011;5273;51.290;6.918;2022-08-19T13:21:54;7.78;;;6.32;;
10450;SDS011;5273;51.290;6.918;2022-08-19T13:24:22;5.72;;;5.20;;
10450;SDS011;5273;51.290;6.918;2022-08-19T13:26:49;5.70;;;5.15;;
10450;SDS011;5273;51.290;6.918;2022-08-19T13:29:16;5.88;;;5.22;;
10450;SDS011;5273;51.290;6.918;2022-08-19T13:32:00;6.85;;;4.95;;
10450;SDS011;5273;51.290;6.918;2022-08-19T13:34:45;6.05;;;4.93;;
10450;SDS011;5273;51.290;6.918;2022-08-19T13:37:14;5.13;;;4.45;;
10450;SDS011;5273;51.290;6.918;2022-08-19T13:39:40;7.07;;;5.35;;
10450;SDS011;5273;51.290;6.918;2022-08-19T13:42:07;9.48;;;7.47;;
10450;SDS011;5273;51.290;6.918;2022-08-19T13:44:35;10.35;;;6.00;;
10450;SDS011;5273;51.290;6.918;2022-08-19T13:47:03;4.97;;;4.57;;
10450;SDS011;5273;51.290;6.918;2022-08-19T13:49:31;7.85;;;4.65;;
10450;SDS011;5273;51.290;6.918;2022-08-19T13:52:01;10.32;;;4.47;;
10450;SDS011;5273;51.290;6.918;2022-08-19T13:54:29;5.43;;;4.13;;
10450;SDS011;5273;51.290;6.918;2022-08-19T13:56:56;5.90;;;4.50;;
10450;SDS011;5273;51.290;6.918;2022-08-19T13:59:23;7.00;;;3.85;;
10450;SDS011;5273;51.290;6.918;2022-08-19T14:01:50;4.25;;;3.92;;
10450;SDS011;5273;51.290;6.918;2022-08-19T14:04:17;4.75;;;4.15;;
10450;SDS011;5273;51.290;6.918;2022-08-19T14:06:43;4.55;;;4.15;;
10450;SDS011;5273;51.290;6.918;2022-08-19T14:09:10;4.25;;;3.50;;
10450;SDS011;5273;51.290;6.918;2022-08-19T14:11:38;5.00;;;3.78;;
10450;SDS011;5273;51.290;6.918;2022-08-19T14:14:05;4.43;;;3.88;;
10450;SDS011;5273;51.290;6.918;2022-08-19T14:16:32;4.80;;;4.25;;
10450;SDS011;5273;51.290;6.918;2022-08-19T14:18:59;4.93;;;4.03;;
10450;SDS011;5273;51.290;6.918;2022-08-19T14:21:26;9.40;;;4.00;;
10450;SDS011;5273;51.290;6.918;2022-08-19T14:23:53;4.57;;;3.70;;
10450;SDS011;5273;51.290;6.918;2022-08-19T14:26:22;6.15;;;4.20;;
10450;SDS011;5273;51.290;6.918;2022-08-19T14:28:51;5.60;;;4.00;;
10450;SDS011;5273;51.290;6.918;2022-08-19T14:31:18;4.88;;;3.92;;
10450;SDS011;5273;51.290;6.918;2022-08-19T14:33:49;4.80;;;3.30;;
10450;SDS011;5273;51.290;6.918;2022-08-19T14:36:16;6.15;;;4.05;;
10450;SDS011;5273;51.290;6.918;2022-08-19T14:38:43;5.50;;;3.53;;
10450;SDS011;5273;51.290;6.918;2022-08-19T14:41:11;3.70;;;3.40;;
10450;SDS011;5273;51.290;6.918;2022-08-19T14:43:41;4.97;;;3.42;;
10450;SDS011;5273;51.290;6.918;2022-08-19T14:46:12;5.57;;;3.13;;
10450;SDS011;5273;51.290;6.918;2022-08-19T14:48:40;3.55;;;3.25;;
10450;SDS011;5273;51.290;6.918;2022-08-19T14:51:07;4.10;;;3.70;;
10450;SDS011;5273;51.290;6.918;2022-08-19T14:53:34;5.45;;;3.50;;
10450;SDS011;5273;51.290;6.918;2022-08-19T14:56:01;8.80;;;3.30;;